KSNK/SNK METAR and TAF weather

Enter ICAO airport designator
Station Type Date Time Source
KSNK METAR 2020/07/08 01:35 UTC NOAA

KSNK 080135Z AUTO 15013G20KT 10SM SCT060 SCT075 31/19 A2994 RMK AO2 T03080186


Station Type Date Time Source
KSNK Decoded METAR 2020/07/08 01:35 UTC NOAA

Snyder, Winston Field Airport, TX, United States (KSNK) 32-41-36N 100-57-01W
Jul 07, 2020 - 09:35 PM EDT / 2020.07.08 0135 UTC
Wind: from the SSE (150 degrees) at 15 MPH (13 KT) gusting to 23 MPH (20 KT):0
Visibility: 10 mile(s):0
Sky conditions: partly cloudy
Temperature: 87.4 F (30.8 C)
Dew Point: 65.5 F (18.6 C)
Relative Humidity: 48%
Pressure (altimeter): 29.94 in. Hg (1013 hPa)
ob: KSNK 080135Z AUTO 15013G20KT 10SM SCT060 SCT075 31/19 A2994 RMK AO2 T03080186
cycle: 1

Station Type Date Time Source
KSNK TAF UTC NOAA

Error!

Example: see airport list